createdAt,value
2018-04-08T00:01:43.788Z,6.80
2018-04-08T00:04:11.939Z,6.70
2018-04-08T00:06:40.083Z,6.70
2018-04-08T00:09:08.258Z,6.70
2018-04-08T00:11:36.371Z,6.70
2018-04-08T00:14:04.507Z,6.70
2018-04-08T00:16:33.431Z,6.70
2018-04-08T00:19:01.618Z,6.60
2018-04-08T00:21:29.834Z,6.80
2018-04-08T00:23:57.937Z,6.90
2018-04-08T00:26:26.091Z,6.90
2018-04-08T00:28:54.179Z,6.90
2018-04-08T00:31:22.361Z,6.80
2018-04-08T00:33:50.437Z,6.70
2018-04-08T00:36:18.589Z,6.50
2018-04-08T00:38:46.692Z,6.40
2018-04-08T00:41:14.836Z,6.30
2018-04-08T00:43:42.982Z,6.20
2018-04-08T00:46:11.085Z,6.10
2018-04-08T00:48:39.230Z,6.00
2018-04-08T00:51:07.356Z,6.10
2018-04-08T00:53:35.693Z,6.00
2018-04-08T00:56:04.595Z,5.70
2018-04-08T00:58:33.474Z,5.70
2018-04-08T01:01:01.590Z,5.70
2018-04-08T01:03:30.457Z,5.70
2018-04-08T01:05:58.551Z,5.70
2018-04-08T01:08:26.683Z,5.70
2018-04-08T01:10:54.773Z,5.70
2018-04-08T01:13:22.987Z,5.70
2018-04-08T01:15:51.083Z,5.70
2018-04-08T01:18:19.190Z,5.70
2018-04-08T01:20:48.049Z,5.80
2018-04-08T01:23:16.161Z,5.80
2018-04-08T01:25:44.354Z,5.90
2018-04-08T01:28:12.571Z,5.90
2018-04-08T01:30:41.423Z,6.00
2018-04-08T01:33:09.509Z,6.00
2018-04-08T01:35:37.627Z,6.10
2018-04-08T01:38:06.500Z,6.30
2018-04-08T01:40:34.602Z,6.30
2018-04-08T01:43:02.705Z,6.10
2018-04-08T01:45:31.558Z,5.80
2018-04-08T01:47:59.701Z,5.80
2018-04-08T01:50:27.843Z,5.70
2018-04-08T01:52:56.011Z,5.60
2018-04-08T01:55:24.208Z,5.50
2018-04-08T01:57:52.428Z,5.40
2018-04-08T02:00:20.537Z,5.40
2018-04-08T02:02:48.682Z,5.30
2018-04-08T02:05:16.789Z,5.40
2018-04-08T02:07:45.677Z,5.50
2018-04-08T02:10:13.934Z,5.50
2018-04-08T02:12:42.027Z,5.40
2018-04-08T02:15:10.178Z,5.40
2018-04-08T02:17:38.350Z,5.30
2018-04-08T02:20:07.245Z,5.40
2018-04-08T02:22:36.110Z,5.70
2018-04-08T02:25:04.279Z,5.70
2018-04-08T02:27:32.393Z,5.80
2018-04-08T02:30:00.685Z,5.50
2018-04-08T02:32:28.795Z,5.30
2018-04-08T02:34:57.700Z,5.10
2018-04-08T02:37:26.636Z,5.10
2018-04-08T02:39:54.829Z,5.10
2018-04-08T02:42:22.927Z,5.10
2018-04-08T02:44:51.071Z,5.20
2018-04-08T02:47:19.463Z,5.10
2018-04-08T02:49:48.382Z,5.00
2018-04-08T02:52:16.482Z,5.00
2018-04-08T02:54:44.573Z,5.20
2018-04-08T02:57:12.680Z,5.20
2018-04-08T02:59:40.820Z,5.20
2018-04-08T03:02:08.911Z,5.20
2018-04-08T03:04:37.020Z,5.00
2018-04-08T03:07:05.122Z,4.90
2018-04-08T03:09:33.262Z,4.80
2018-04-08T03:12:01.441Z,4.70
2018-04-08T03:14:30.335Z,4.80
2018-04-08T03:16:58.482Z,4.80
2018-04-08T03:19:26.601Z,4.60
2018-04-08T03:21:55.444Z,4.50
2018-04-08T03:24:23.553Z,4.40
2018-04-08T03:26:51.689Z,4.40
2018-04-08T03:29:19.793Z,4.30
2018-04-08T03:31:47.912Z,4.30
2018-04-08T03:34:16.014Z,4.20
2018-04-08T03:36:44.132Z,4.20
2018-04-08T03:39:12.233Z,4.10
2018-04-08T03:41:40.348Z,4.00
2018-04-08T03:44:08.453Z,4.00
2018-04-08T03:46:36.797Z,4.00
2018-04-08T03:49:04.890Z,4.00
2018-04-08T03:51:33.018Z,4.00
2018-04-08T03:54:01.153Z,4.00
2018-04-08T03:56:29.272Z,4.00
2018-04-08T03:58:57.531Z,4.00
2018-04-08T04:01:25.627Z,4.00
2018-04-08T04:03:53.744Z,3.90
2018-04-08T04:06:22.631Z,4.00
2018-04-08T04:08:50.733Z,3.90
2018-04-08T04:11:18.827Z,3.90
2018-04-08T04:13:47.737Z,3.80
2018-04-08T04:16:16.227Z,3.80
2018-04-08T04:18:57.080Z,3.80
2018-04-08T04:21:37.012Z,3.70
2018-04-08T04:27:04.721Z,3.60
2018-04-08T04:29:32.779Z,3.60
2018-04-08T04:32:00.838Z,3.60
2018-04-08T04:34:28.935Z,3.60
2018-04-08T04:36:57.846Z,3.40
2018-04-08T04:39:26.720Z,3.40
2018-04-08T04:41:54.863Z,3.40
2018-04-08T04:44:22.992Z,3.40
2018-04-08T04:46:51.138Z,3.40
2018-04-08T04:49:19.341Z,3.60
2018-04-08T04:51:47.460Z,3.50
2018-04-08T04:54:15.612Z,3.40
2018-04-08T04:56:43.724Z,3.40
2018-04-08T04:59:11.815Z,3.60
2018-04-08T05:01:40.756Z,3.80
2018-04-08T05:04:08.866Z,3.80
2018-04-08T05:06:36.961Z,3.80
2018-04-08T05:09:05.093Z,3.80
2018-04-08T05:11:33.189Z,3.80
2018-04-08T05:14:01.294Z,3.90
2018-04-08T05:16:29.424Z,4.00
2018-04-08T05:18:57.539Z,4.10
2018-04-08T05:21:25.690Z,4.40
2018-04-08T05:23:55.323Z,5.10
2018-04-08T05:26:24.267Z,5.60
2018-04-08T05:28:52.425Z,5.60
2018-04-08T05:31:21.290Z,6.20
2018-04-08T05:33:49.432Z,6.20
2018-04-08T05:36:17.517Z,6.60
2018-04-08T05:38:45.651Z,7.10
2018-04-08T05:41:14.523Z,8.00
2018-04-08T05:43:42.624Z,7.90
2018-04-08T05:46:10.721Z,8.30
2018-04-08T05:48:38.810Z,8.70
2018-04-08T05:51:06.907Z,9.30
2018-04-08T05:53:35.818Z,10.10
2018-04-08T05:56:04.691Z,10.50
2018-04-08T05:58:32.802Z,10.50
2018-04-08T06:01:01.658Z,11.20
2018-04-08T06:03:29.745Z,11.10
2018-04-08T06:05:57.879Z,11.40
2018-04-08T06:08:26.760Z,12.10
2018-04-08T06:10:54.863Z,12.10
2018-04-08T06:13:22.997Z,12.70
2018-04-08T06:15:51.083Z,13.20
2018-04-08T06:18:19.189Z,13.80
2018-04-08T06:20:47.367Z,13.80
2018-04-08T06:23:15.518Z,14.10
2018-04-08T06:25:43.633Z,14.30
2018-04-08T06:28:11.782Z,14.80
2018-04-08T06:30:40.066Z,15.50
2018-04-08T06:33:08.914Z,15.80
2018-04-08T06:35:37.012Z,15.80
2018-04-08T06:38:05.161Z,15.90
2018-04-08T06:40:33.272Z,16.10
2018-04-08T06:43:01.404Z,16.10
2018-04-08T06:45:30.273Z,16.40
2018-04-08T06:47:58.360Z,16.40
2018-04-08T06:50:26.502Z,17.20
2018-04-08T06:52:54.607Z,17.70
2018-04-08T06:55:22.689Z,18.50
2018-04-08T06:57:50.783Z,18.60
2018-04-08T07:00:18.897Z,18.60
2018-04-08T07:02:47.017Z,19.30
2018-04-08T07:05:15.194Z,19.40
2018-04-08T07:07:43.280Z,19.40
2018-04-08T07:10:12.159Z,18.20
2018-04-08T07:12:40.278Z,18.20
2018-04-08T07:15:08.404Z,17.40
2018-04-08T07:17:36.497Z,18.40
2018-04-08T07:20:04.834Z,19.20
2018-04-08T07:22:32.939Z,20.20
2018-04-08T07:25:01.047Z,20.60
2018-04-08T07:27:29.148Z,19.90
2018-04-08T07:29:57.241Z,19.80
2018-04-08T07:32:25.430Z,19.80
2018-04-08T07:34:53.528Z,20.00
2018-04-08T07:37:22.406Z,19.90
2018-04-08T07:39:50.575Z,19.90
2018-04-08T07:42:18.670Z,20.30
2018-04-08T07:44:46.773Z,20.70
2018-04-08T07:47:15.650Z,21.60
2018-04-08T07:49:43.768Z,21.60
2018-04-08T07:52:12.604Z,20.80
2018-04-08T07:54:40.715Z,20.80
2018-04-08T07:57:08.810Z,20.90
2018-04-08T07:59:36.989Z,19.60
2018-04-08T08:02:05.106Z,20.40
2018-04-08T08:04:33.216Z,19.70
2018-04-08T08:07:02.096Z,19.20
2018-04-08T08:09:30.193Z,19.20
2018-04-08T08:11:59.165Z,21.50
2018-04-08T08:14:27.257Z,21.50
2018-04-08T08:16:55.388Z,22.90
2018-04-08T08:19:23.493Z,22.40
2018-04-08T08:21:51.600Z,22.90
2018-04-08T08:24:19.705Z,22.40
2018-04-08T08:26:47.839Z,22.40
2018-04-08T08:29:15.932Z,22.60
2018-04-08T08:31:44.071Z,24.10
2018-04-08T08:34:12.953Z,23.40
2018-04-08T08:36:41.086Z,23.30
2018-04-08T08:39:09.208Z,22.60
2018-04-08T08:41:37.363Z,22.50
2018-04-08T08:44:05.453Z,21.70
2018-04-08T08:46:33.558Z,21.50
2018-04-08T08:49:01.691Z,21.50
2018-04-08T08:51:30.551Z,23.80
2018-04-08T08:53:58.654Z,23.70
2018-04-08T08:56:26.741Z,23.70
2018-04-08T08:58:54.832Z,23.30
2018-04-08T09:01:22.956Z,24.30
2018-04-08T09:03:51.290Z,23.60
2018-04-08T09:06:19.413Z,23.50
2018-04-08T09:08:48.282Z,24.70
2018-04-08T09:11:16.405Z,24.70
2018-04-08T09:13:45.263Z,23.20
2018-04-08T09:16:13.394Z,23.20
2018-04-08T09:18:44.707Z,23.60
2018-04-08T09:21:14.391Z,23.60
2018-04-08T09:23:48.108Z,22.70
2018-04-08T09:26:16.204Z,22.80
2018-04-08T09:28:44.294Z,22.30
2018-04-08T09:31:12.403Z,22.50
2018-04-08T09:33:40.491Z,22.90
2018-04-08T09:36:08.592Z,23.00
2018-04-08T09:38:36.694Z,23.40
2018-04-08T09:41:05.621Z,23.60
2018-04-08T09:43:33.741Z,23.60
2018-04-08T09:46:01.873Z,23.80
2018-04-08T09:48:30.724Z,22.40
2018-04-08T09:50:58.809Z,22.30
2018-04-08T09:53:26.959Z,21.60
2018-04-08T09:55:55.046Z,21.60
2018-04-08T09:58:24.773Z,22.40
2018-04-08T10:03:51.556Z,22.60
2018-04-08T10:06:19.600Z,22.70
2018-04-08T10:08:47.643Z,22.70
2018-04-08T10:11:15.700Z,23.10
2018-04-08T10:13:43.802Z,22.80
2018-04-08T10:16:11.865Z,23.00
2018-04-08T10:18:39.924Z,22.90
2018-04-08T10:21:07.976Z,23.30
2018-04-08T10:23:36.036Z,23.70
2018-04-08T10:26:04.092Z,23.20
2018-04-08T10:28:32.921Z,23.60
2018-04-08T10:31:00.985Z,23.60
2018-04-08T10:33:29.801Z,23.30
2018-04-08T10:35:57.839Z,23.30
2018-04-08T10:38:25.889Z,23.00
2018-04-08T10:40:53.945Z,23.40
2018-04-08T10:43:21.979Z,22.70
2018-04-08T10:45:51.553Z,23.70
2018-04-08T10:48:19.596Z,23.80
2018-04-08T10:50:47.640Z,22.90
2018-04-08T10:53:15.695Z,23.80
2018-04-08T10:55:43.748Z,24.30
2018-04-08T10:58:11.827Z,23.80
2018-04-08T11:00:39.870Z,24.20
2018-04-08T11:03:07.923Z,25.00
2018-04-08T11:05:35.971Z,22.90
2018-04-08T11:08:04.020Z,23.70
2018-04-08T11:10:32.099Z,24.10
2018-04-08T11:13:00.905Z,25.50
2018-04-08T11:15:28.959Z,25.50
2018-04-08T11:17:57.018Z,25.70
2018-04-08T11:20:25.071Z,26.20
2018-04-08T11:22:53.115Z,25.10
2018-04-08T11:25:21.174Z,25.30
2018-04-08T11:27:49.220Z,26.30
2018-04-08T11:30:17.281Z,27.10
2018-04-08T11:32:45.324Z,26.70
2018-04-08T11:35:13.390Z,26.50
2018-04-08T11:37:41.441Z,25.90
2018-04-08T11:40:09.500Z,25.10
2018-04-08T11:42:38.326Z,24.90
2018-04-08T11:45:06.431Z,24.90
2018-04-08T11:47:34.491Z,25.20
2018-04-08T11:50:02.548Z,26.10
2018-04-08T11:52:31.405Z,26.30
2018-04-08T11:54:59.427Z,26.30
2018-04-08T11:57:28.244Z,26.40
2018-04-08T11:59:56.296Z,26.30
2018-04-08T12:02:24.343Z,27.60
2018-04-08T12:04:52.400Z,28.50
2018-04-08T12:07:20.443Z,28.80
2018-04-08T12:09:48.503Z,29.00
2018-04-08T12:12:16.548Z,27.50
2018-04-08T12:14:44.693Z,28.20
2018-04-08T12:17:12.753Z,27.40
2018-04-08T12:19:40.798Z,28.20
2018-04-08T12:22:08.859Z,28.80
2018-04-08T12:24:36.936Z,27.60
2018-04-08T12:27:05.865Z,28.00
2018-04-08T12:29:34.016Z,28.00
2018-04-08T12:32:02.132Z,28.00
2018-04-08T12:34:31.025Z,29.00
2018-04-08T12:36:59.901Z,29.20
2018-04-08T12:39:28.021Z,29.20
2018-04-08T12:41:56.879Z,27.60
2018-04-08T12:44:24.996Z,27.60
2018-04-08T12:46:53.111Z,27.70
2018-04-08T12:49:21.191Z,28.50
2018-04-08T12:51:49.484Z,28.00
2018-04-08T12:54:17.517Z,28.10
2018-04-08T12:56:45.585Z,26.40
2018-04-08T12:59:13.777Z,27.30
2018-04-08T13:01:41.857Z,27.30
2018-04-08T13:04:10.008Z,25.40
2018-04-08T13:06:38.161Z,26.30
2018-04-08T13:09:06.247Z,26.50
2018-04-08T13:11:34.377Z,26.60
2018-04-08T13:14:02.468Z,27.60
2018-04-08T13:16:30.596Z,26.30
2018-04-08T13:18:58.696Z,25.80
2018-04-08T13:21:26.860Z,25.80
2018-04-08T13:23:55.017Z,26.10
2018-04-08T13:26:23.165Z,26.70
2018-04-08T13:28:52.013Z,26.50
2018-04-08T13:31:20.122Z,26.50
2018-04-08T13:33:48.217Z,26.50
2018-04-08T13:36:16.317Z,26.20
2018-04-08T13:38:45.155Z,27.10
2018-04-08T13:41:13.230Z,27.00
2018-04-08T13:43:41.324Z,27.10
2018-04-08T13:46:09.434Z,25.50
2018-04-08T13:48:37.501Z,25.80
2018-04-08T13:51:05.627Z,25.90
2018-04-08T13:53:33.707Z,26.30
2018-04-08T13:56:01.915Z,25.80
2018-04-08T13:58:30.001Z,26.00
2018-04-08T14:00:58.856Z,26.40
2018-04-08T14:03:27.039Z,26.40
2018-04-08T14:05:55.141Z,25.90
2018-04-08T14:08:23.234Z,26.20
2018-04-08T14:10:51.338Z,25.20
2018-04-08T14:13:20.225Z,26.40
2018-04-08T14:15:48.308Z,26.40
2018-04-08T14:18:16.451Z,27.10
2018-04-08T14:20:44.521Z,27.10
2018-04-08T14:23:12.614Z,25.80
2018-04-08T14:25:41.041Z,25.50
2018-04-08T14:28:09.188Z,25.10
2018-04-08T14:30:38.018Z,25.70
2018-04-08T14:33:06.153Z,25.60
2018-04-08T14:35:35.018Z,24.80
2018-04-08T14:38:03.048Z,24.80
2018-04-08T14:40:31.211Z,24.30
2018-04-08T14:42:59.316Z,24.20
2018-04-08T14:45:28.185Z,23.70
2018-04-08T14:47:56.281Z,23.70
2018-04-08T14:50:24.430Z,23.50
2018-04-08T14:52:52.596Z,23.40
2018-04-08T14:55:20.679Z,23.30
2018-04-08T14:57:48.804Z,23.30
2018-04-08T15:00:16.923Z,23.10
2018-04-08T15:02:45.815Z,22.80
2018-04-08T15:05:13.903Z,22.80
2018-04-08T15:07:42.015Z,22.80
2018-04-08T15:10:10.900Z,22.70
2018-04-08T15:12:39.875Z,22.70
2018-04-08T15:15:07.964Z,22.60
2018-04-08T15:17:36.034Z,22.60
2018-04-08T15:20:04.177Z,22.60
2018-04-08T15:22:32.373Z,22.60
2018-04-08T15:25:00.481Z,22.60
2018-04-08T15:27:28.538Z,22.50
2018-04-08T15:29:56.715Z,22.50
2018-04-08T15:32:25.581Z,22.40
2018-04-08T15:34:53.676Z,22.40
2018-04-08T15:37:21.760Z,22.40
2018-04-08T15:39:49.826Z,22.30
2018-04-08T15:42:17.943Z,22.40
2018-04-08T15:44:46.835Z,22.40
2018-04-08T15:47:14.930Z,22.40
2018-04-08T15:49:43.826Z,22.40
2018-04-08T15:52:11.980Z,22.40
2018-04-08T15:54:40.158Z,22.30
2018-04-08T15:57:08.321Z,22.20
2018-04-08T15:59:36.442Z,22.20
2018-04-08T16:02:04.526Z,22.10
2018-04-08T16:04:32.607Z,22.10
2018-04-08T16:07:00.764Z,22.10
2018-04-08T16:09:28.911Z,22.10
2018-04-08T16:11:57.004Z,22.00
2018-04-08T16:14:25.868Z,21.90
2018-04-08T16:16:53.969Z,21.90
2018-04-08T16:19:22.166Z,21.80
2018-04-08T16:21:50.268Z,21.70
2018-04-08T16:24:18.407Z,21.70
2018-04-08T16:26:46.493Z,21.60
2018-04-08T16:29:14.591Z,21.60
2018-04-08T16:31:42.687Z,21.50
2018-04-08T16:34:10.831Z,21.50
2018-04-08T16:36:38.901Z,21.50
2018-04-08T16:39:07.175Z,21.40
2018-04-08T16:41:35.255Z,21.40
2018-04-08T16:44:04.101Z,21.30
2018-04-08T16:46:32.218Z,21.30
2018-04-08T16:49:00.376Z,21.40
2018-04-08T16:51:28.475Z,21.30
2018-04-08T16:53:56.670Z,21.30
2018-04-08T16:56:24.786Z,21.20
2018-04-08T16:58:52.913Z,21.10
2018-04-08T17:01:21.116Z,20.90
2018-04-08T17:03:49.362Z,20.90
2018-04-08T17:06:17.480Z,20.80
2018-04-08T17:08:45.625Z,20.80
2018-04-08T17:11:13.718Z,20.70
2018-04-08T17:13:41.846Z,20.70
2018-04-08T17:16:09.965Z,20.60
2018-04-08T17:18:38.065Z,20.70
2018-04-08T17:21:06.164Z,20.90
2018-04-08T17:23:34.240Z,21.00
2018-04-08T17:26:02.324Z,20.90
2018-04-08T17:28:30.430Z,20.90
2018-04-08T17:30:58.569Z,20.80
2018-04-08T17:33:26.702Z,20.70
2018-04-08T17:35:54.750Z,20.60
2018-04-08T17:38:22.847Z,20.40
2018-04-08T17:40:50.959Z,20.30
2018-04-08T17:43:19.055Z,20.30
2018-04-08T17:45:47.227Z,20.30
2018-04-08T17:48:15.317Z,20.20
2018-04-08T17:50:43.437Z,20.10
2018-04-08T17:53:11.539Z,20.00
2018-04-08T17:55:40.395Z,19.90
2018-04-08T17:58:08.556Z,19.90
2018-04-08T18:00:36.832Z,19.80
2018-04-08T18:03:05.030Z,19.80
2018-04-08T18:05:33.123Z,19.60
2018-04-08T18:08:01.213Z,19.60
2018-04-08T18:10:29.320Z,19.40
2018-04-08T18:12:57.497Z,19.30
2018-04-08T18:15:25.594Z,19.20
2018-04-08T18:17:53.885Z,19.10
2018-04-08T18:20:22.007Z,19.00
2018-04-08T18:22:50.054Z,18.90
2018-04-08T18:25:18.179Z,18.80
2018-04-08T18:27:47.047Z,18.70
2018-04-08T18:30:15.130Z,18.60
2018-04-08T18:32:43.253Z,18.50
2018-04-08T18:35:12.109Z,18.40
2018-04-08T18:37:40.336Z,18.40
2018-04-08T18:40:09.248Z,18.20
2018-04-08T18:42:37.332Z,18.20
2018-04-08T18:45:06.242Z,18.00
2018-04-08T18:47:35.089Z,17.90
2018-04-08T18:50:03.288Z,17.90
2018-04-08T18:52:31.441Z,17.80
2018-04-08T18:54:59.535Z,17.60
2018-04-08T18:57:27.664Z,17.60
2018-04-08T18:59:56.635Z,16.90
2018-04-08T19:02:24.741Z,16.90
2018-04-08T19:04:52.842Z,16.80
2018-04-08T19:07:21.735Z,16.70
2018-04-08T19:09:49.928Z,16.70
2018-04-08T19:12:18.032Z,16.40
2018-04-08T19:14:52.491Z,15.90
2018-04-08T19:20:21.379Z,15.60
2018-04-08T19:22:49.437Z,15.40
2018-04-08T19:25:17.476Z,15.20
2018-04-08T19:27:45.520Z,14.90
2018-04-08T19:30:19.253Z,14.70
2018-04-08T19:32:48.095Z,14.50
2018-04-08T19:35:16.124Z,14.50
2018-04-08T19:37:44.936Z,14.00
2018-04-08T19:40:12.988Z,13.90
2018-04-08T19:42:41.044Z,13.80
2018-04-08T19:45:09.079Z,13.60
2018-04-08T19:47:37.128Z,13.40
2018-04-08T19:50:05.179Z,13.20
2018-04-08T19:52:33.988Z,12.80
2018-04-08T19:55:02.051Z,12.80
2018-04-08T19:57:30.088Z,12.70
2018-04-08T19:59:58.136Z,12.50
2018-04-08T20:02:26.212Z,12.30
2018-04-08T20:04:54.256Z,12.30
2018-04-08T20:07:22.304Z,12.30
2018-04-08T20:09:50.350Z,12.10
2018-04-08T20:12:19.188Z,11.90
2018-04-08T20:14:47.236Z,11.90
2018-04-08T20:17:16.056Z,11.80
2018-04-08T20:19:44.128Z,11.70
2018-04-08T20:22:12.948Z,11.40
2018-04-08T20:24:41.016Z,11.40
2018-04-08T20:27:09.824Z,11.20
2018-04-08T20:29:37.876Z,11.20
2018-04-08T20:32:05.919Z,11.10
2018-04-08T20:34:33.976Z,11.00
2018-04-08T20:37:02.072Z,10.90
2018-04-08T20:39:30.124Z,10.90
2018-04-08T20:41:58.169Z,10.80
2018-04-08T20:44:26.227Z,10.70
2018-04-08T20:46:54.266Z,10.70
2018-04-08T20:49:22.316Z,10.50
2018-04-08T20:51:50.362Z,10.40
2018-04-08T20:54:18.413Z,10.30
2018-04-08T20:56:46.452Z,10.30
2018-04-08T20:59:14.509Z,10.30
2018-04-08T21:01:43.349Z,10.30
2018-04-08T21:04:11.401Z,10.30
2018-04-08T21:06:39.449Z,10.10
2018-04-08T21:09:07.513Z,10.20
2018-04-08T21:11:35.563Z,10.10
2018-04-08T21:14:03.601Z,10.20
2018-04-08T21:16:32.435Z,10.10
2018-04-08T21:19:00.495Z,10.10
2018-04-08T21:21:28.552Z,10.10
2018-04-08T21:23:56.618Z,10.00
2018-04-08T21:26:24.704Z,9.90
2018-04-08T21:28:52.828Z,9.80
2018-04-08T21:31:20.943Z,9.80
2018-04-08T21:33:49.834Z,9.60
2018-04-08T21:36:18.736Z,9.60
2018-04-08T21:38:47.636Z,9.50
2018-04-08T21:41:15.728Z,9.50
2018-04-08T21:43:44.598Z,9.60
2018-04-08T21:46:12.726Z,9.50
2018-04-08T21:48:40.857Z,9.50
2018-04-08T21:51:09.075Z,9.30
2018-04-08T21:53:37.189Z,9.20
2018-04-08T21:56:05.397Z,9.20
2018-04-08T21:58:33.491Z,9.10
2018-04-08T22:01:01.621Z,9.10
2018-04-08T22:03:29.750Z,9.10
2018-04-08T22:05:57.915Z,9.10
2018-04-08T22:08:26.017Z,9.00
2018-04-08T22:10:54.119Z,8.90
2018-04-08T22:13:22.218Z,8.80
2018-04-08T22:15:50.429Z,8.80
2018-04-08T22:18:18.515Z,8.70
2018-04-08T22:20:46.615Z,8.60
2018-04-08T22:23:14.697Z,8.60
2018-04-08T22:25:43.597Z,8.70
2018-04-08T22:28:12.481Z,8.70
2018-04-08T22:30:40.611Z,8.60
2018-04-08T22:33:08.711Z,8.70
2018-04-08T22:35:36.859Z,8.60
2018-04-08T22:38:05.752Z,8.50
2018-04-08T22:40:34.621Z,8.40
2018-04-08T22:43:02.721Z,8.40
2018-04-08T22:45:30.862Z,8.40
2018-04-08T22:47:59.021Z,8.40
2018-04-08T22:50:27.140Z,8.30
2018-04-08T22:52:55.219Z,8.20
2018-04-08T22:55:23.303Z,8.20
2018-04-08T22:57:51.395Z,8.40
2018-04-08T23:00:28.441Z,8.20
2018-04-08T23:02:56.554Z,8.20
2018-04-08T23:05:25.407Z,8.10
2018-04-08T23:07:53.523Z,8.10
2018-04-08T23:10:22.442Z,7.90
2018-04-08T23:12:51.347Z,7.90
2018-04-08T23:15:20.224Z,7.90
2018-04-08T23:17:48.432Z,7.90
2018-04-08T23:20:17.317Z,7.70
2018-04-08T23:22:45.424Z,7.70
2018-04-08T23:25:13.502Z,7.60
2018-04-08T23:27:42.390Z,7.70
2018-04-08T23:30:10.532Z,7.70
2018-04-08T23:32:38.638Z,7.70
2018-04-08T23:35:06.805Z,7.60
2018-04-08T23:37:34.889Z,7.50
2018-04-08T23:40:02.983Z,7.40
2018-04-08T23:42:31.320Z,7.40
2018-04-08T23:44:59.407Z,7.50
2018-04-08T23:47:28.270Z,7.30
2018-04-08T23:49:56.406Z,7.30
2018-04-08T23:52:24.521Z,7.30
2018-04-08T23:54:52.648Z,7.20
2018-04-08T23:57:20.732Z,7.30
2018-04-08T23:59:48.830Z,7.20
